sensor_id;sensor_type;location;lat;lon;timestamp;temperature;humidity
44671;DHT22;48397;53.016;-2.260;2022-09-24T00:01:47;7.50;99.90
44671;DHT22;48397;53.016;-2.260;2022-09-24T00:04:15;7.50;99.90
44671;DHT22;48397;53.016;-2.260;2022-09-24T00:06:45;7.50;99.90
44671;DHT22;48397;53.016;-2.260;2022-09-24T00:09:15;7.60;99.90
44671;DHT22;48397;53.016;-2.260;2022-09-24T00:11:43;7.60;99.90
44671;DHT22;48397;53.016;-2.260;2022-09-24T00:14:12;7.70;99.90
44671;DHT22;48397;53.016;-2.260;2022-09-24T00:16:41;7.90;99.90
44671;DHT22;48397;53.016;-2.260;2022-09-24T00:19:11;8.40;99.90
44671;DHT22;48397;53.016;-2.260;2022-09-24T00:21:41;8.70;99.90
44671;DHT22;48397;53.016;-2.260;2022-09-24T00:24:12;8.90;99.90
44671;DHT22;48397;53.016;-2.260;2022-09-24T00:27:00;9.00;99.90
44671;DHT22;48397;53.016;-2.260;2022-09-24T00:29:29;9.10;99.90
44671;DHT22;48397;53.016;-2.260;2022-09-24T00:32:03;9.10;99.90
44671;DHT22;48397;53.016;-2.260;2022-09-24T00:34:32;9.00;99.90
44671;DHT22;48397;53.016;-2.260;2022-09-24T00:37:00;9.10;99.90
44671;DHT22;48397;53.016;-2.260;2022-09-24T00:39:28;9.10;99.90
44671;DHT22;48397;53.016;-2.260;2022-09-24T00:41:56;9.20;99.90
44671;DHT22;48397;53.016;-2.260;2022-09-24T00:47:31;9.20;99.90
44671;DHT22;48397;53.016;-2.260;2022-09-24T00:53:04;9.30;99.90
44671;DHT22;48397;53.016;-2.260;2022-09-24T00:55:33;9.20;99.90
44671;DHT22;48397;53.016;-2.260;2022-09-24T00:58:06;9.20;99.90
44671;DHT22;48397;53.016;-2.260;2022-09-24T01:00:40;9.30;99.90
44671;DHT22;48397;53.016;-2.260;2022-09-24T01:03:22;9.20;99.90
44671;DHT22;48397;53.016;-2.260;2022-09-24T01:05:50;9.20;99.90
44671;DHT22;48397;53.016;-2.260;2022-09-24T01:08:18;9.30;99.90
44671;DHT22;48397;53.016;-2.260;2022-09-24T01:22:41;9.70;99.90
44671;DHT22;48397;53.016;-2.260;2022-09-24T01:30:58;9.70;99.90
44671;DHT22;48397;53.016;-2.260;2022-09-24T01:33:29;9.70;99.90
44671;DHT22;48397;53.016;-2.260;2022-09-24T01:36:01;9.60;99.90
44671;DHT22;48397;53.016;-2.260;2022-09-24T01:38:39;9.50;99.90
44671;DHT22;48397;53.016;-2.260;2022-09-24T01:41:10;9.50;99.90
44671;DHT22;48397;53.016;-2.260;2022-09-24T01:43:38;9.40;99.90
44671;DHT22;48397;53.016;-2.260;2022-09-24T01:46:07;9.40;99.90
44671;DHT22;48397;53.016;-2.260;2022-09-24T01:48:36;9.40;99.90
44671;DHT22;48397;53.016;-2.260;2022-09-24T01:51:24;9.30;99.90
44671;DHT22;48397;53.016;-2.260;2022-09-24T01:54:16;9.40;99.90
44671;DHT22;48397;53.016;-2.260;2022-09-24T01:57:04;9.40;99.90
44671;DHT22;48397;53.016;-2.260;2022-09-24T01:59:38;9.50;99.90
44671;DHT22;48397;53.016;-2.260;2022-09-24T02:04:50;9.60;99.90
44671;DHT22;48397;53.016;-2.260;2022-09-24T02:07:25;9.50;99.90
44671;DHT22;48397;53.016;-2.260;2022-09-24T02:09:54;9.50;99.90
44671;DHT22;48397;53.016;-2.260;2022-09-24T02:12:36;9.60;99.90
44671;DHT22;48397;53.016;-2.260;2022-09-24T02:15:12;9.40;99.90
44671;DHT22;48397;53.016;-2.260;2022-09-24T02:17:44;9.50;99.90
44671;DHT22;48397;53.016;-2.260;2022-09-24T02:20:15;9.50;99.90
44671;DHT22;48397;53.016;-2.260;2022-09-24T02:22:46;9.40;99.90
44671;DHT22;48397;53.016;-2.260;2022-09-24T02:25:39;9.40;99.90
44671;DHT22;48397;53.016;-2.260;2022-09-24T02:28:07;9.40;99.90
44671;DHT22;48397;53.016;-2.260;2022-09-24T02:30:40;9.40;99.90
44671;DHT22;48397;53.016;-2.260;2022-09-24T02:33:11;9.20;99.90
44671;DHT22;48397;53.016;-2.260;2022-09-24T02:35:58;9.30;99.90
44671;DHT22;48397;53.016;-2.260;2022-09-24T02:38:26;9.30;99.90
44671;DHT22;48397;53.016;-2.260;2022-09-24T02:40:54;9.20;99.90
44671;DHT22;48397;53.016;-2.260;2022-09-24T02:48:20;9.10;99.90
44671;DHT22;48397;53.016;-2.260;2022-09-24T02:55:44;8.80;99.90
44671;DHT22;48397;53.016;-2.260;2022-09-24T02:58:11;8.80;99.90
44671;DHT22;48397;53.016;-2.260;2022-09-24T03:00:39;8.70;99.90
44671;DHT22;48397;53.016;-2.260;2022-09-24T03:08:03;8.50;99.90
44671;DHT22;48397;53.016;-2.260;2022-09-24T03:10:32;8.50;99.90
44671;DHT22;48397;53.016;-2.260;2022-09-24T03:13:00;8.50;99.90
44671;DHT22;48397;53.016;-2.260;2022-09-24T03:15:27;8.40;99.90
44671;DHT22;48397;53.016;-2.260;2022-09-24T03:17:56;8.40;99.90
44671;DHT22;48397;53.016;-2.260;2022-09-24T03:20:23;8.30;99.90
44671;DHT22;48397;53.016;-2.260;2022-09-24T03:22:52;8.20;99.90
44671;DHT22;48397;53.016;-2.260;2022-09-24T03:25:19;8.10;99.90
44671;DHT22;48397;53.016;-2.260;2022-09-24T03:27:47;8.10;99.90
44671;DHT22;48397;53.016;-2.260;2022-09-24T03:33:01;8.10;99.90
44671;DHT22;48397;53.016;-2.260;2022-09-24T03:35:29;8.10;99.90
44671;DHT22;48397;53.016;-2.260;2022-09-24T03:37:56;8.10;99.90
44671;DHT22;48397;53.016;-2.260;2022-09-24T03:42:52;8.20;99.90
44671;DHT22;48397;53.016;-2.260;2022-09-24T03:45:20;8.20;99.90
44671;DHT22;48397;53.016;-2.260;2022-09-24T03:47:47;8.30;99.90
44671;DHT22;48397;53.016;-2.260;2022-09-24T03:55:12;8.50;99.90
44671;DHT22;48397;53.016;-2.260;2022-09-24T03:57:40;8.50;99.90
44671;DHT22;48397;53.016;-2.260;2022-09-24T04:00:08;8.60;99.90
44671;DHT22;48397;53.016;-2.260;2022-09-24T04:05:07;8.60;99.90
44671;DHT22;48397;53.016;-2.260;2022-09-24T04:07:34;8.70;99.90
44671;DHT22;48397;53.016;-2.260;2022-09-24T04:10:02;8.60;99.90
44671;DHT22;48397;53.016;-2.260;2022-09-24T04:15:00;8.70;99.90
44671;DHT22;48397;53.016;-2.260;2022-09-24T04:20:00;8.80;99.90
44671;DHT22;48397;53.016;-2.260;2022-09-24T04:24:58;8.90;99.90
44671;DHT22;48397;53.016;-2.260;2022-09-24T04:27:25;9.10;99.90
44671;DHT22;48397;53.016;-2.260;2022-09-24T04:29:53;9.10;99.90
44671;DHT22;48397;53.016;-2.260;2022-09-24T04:32:21;9.20;99.90
44671;DHT22;48397;53.016;-2.260;2022-09-24T04:39:44;9.30;99.90
44671;DHT22;48397;53.016;-2.260;2022-09-24T04:42:16;9.40;99.90
44671;DHT22;48397;53.016;-2.260;2022-09-24T04:44:44;9.50;99.90
44671;DHT22;48397;53.016;-2.260;2022-09-24T04:47:14;9.50;99.90
44671;DHT22;48397;53.016;-2.260;2022-09-24T04:52:12;9.60;99.90
44671;DHT22;48397;53.016;-2.260;2022-09-24T04:54:43;9.60;99.90
44671;DHT22;48397;53.016;-2.260;2022-09-24T04:57:14;9.60;99.90
44671;DHT22;48397;53.016;-2.260;2022-09-24T04:59:42;9.60;99.90
44671;DHT22;48397;53.016;-2.260;2022-09-24T05:02:10;9.70;99.90
44671;DHT22;48397;53.016;-2.260;2022-09-24T05:09:34;9.60;99.90
44671;DHT22;48397;53.016;-2.260;2022-09-24T05:12:02;9.60;99.90
44671;DHT22;48397;53.016;-2.260;2022-09-24T05:16:58;9.50;99.90
44671;DHT22;48397;53.016;-2.260;2022-09-24T05:19:26;9.40;99.90
44671;DHT22;48397;53.016;-2.260;2022-09-24T05:24:21;9.30;99.90
44671;DHT22;48397;53.016;-2.260;2022-09-24T05:26:49;9.30;99.90
44671;DHT22;48397;53.016;-2.260;2022-09-24T05:29:37;9.20;99.90
44671;DHT22;48397;53.016;-2.260;2022-09-24T05:32:07;9.20;99.90
44671;DHT22;48397;53.016;-2.260;2022-09-24T05:37:03;9.00;99.90
44671;DHT22;48397;53.016;-2.260;2022-09-24T05:49:27;8.80;99.90
44671;DHT22;48397;53.016;-2.260;2022-09-24T05:51:54;8.70;99.90
44671;DHT22;48397;53.016;-2.260;2022-09-24T05:56:51;8.60;99.90
44671;DHT22;48397;53.016;-2.260;2022-09-24T05:59:19;8.30;99.90
44671;DHT22;48397;53.016;-2.260;2022-09-24T06:01:46;8.20;99.90
44671;DHT22;48397;53.016;-2.260;2022-09-24T06:04:15;8.10;99.90
44671;DHT22;48397;53.016;-2.260;2022-09-24T06:06:43;8.10;99.90
44671;DHT22;48397;53.016;-2.260;2022-09-24T06:11:39;8.00;99.90
44671;DHT22;48397;53.016;-2.260;2022-09-24T06:14:08;7.70;99.90
44671;DHT22;48397;53.016;-2.260;2022-09-24T06:16:36;7.70;99.90
44671;DHT22;48397;53.016;-2.260;2022-09-24T06:21:32;7.40;99.90
44671;DHT22;48397;53.016;-2.260;2022-09-24T06:24:00;7.30;99.90
44671;DHT22;48397;53.016;-2.260;2022-09-24T06:28:55;7.20;99.90
44671;DHT22;48397;53.016;-2.260;2022-09-24T06:36:26;7.10;99.90
44671;DHT22;48397;53.016;-2.260;2022-09-24T06:41:22;7.00;99.90
44671;DHT22;48397;53.016;-2.260;2022-09-24T06:43:53;6.90;99.90
44671;DHT22;48397;53.016;-2.260;2022-09-24T06:46:21;6.80;99.90
44671;DHT22;48397;53.016;-2.260;2022-09-24T06:51:23;6.90;99.90
44671;DHT22;48397;53.016;-2.260;2022-09-24T06:56:19;6.90;99.90
44671;DHT22;48397;53.016;-2.260;2022-09-24T06:58:46;7.00;99.90
44671;DHT22;48397;53.016;-2.260;2022-09-24T07:03:43;7.00;99.90
44671;DHT22;48397;53.016;-2.260;2022-09-24T07:11:06;7.10;99.90
44671;DHT22;48397;53.016;-2.260;2022-09-24T07:13:35;7.20;99.90
44671;DHT22;48397;53.016;-2.260;2022-09-24T07:18:30;7.30;99.90
44671;DHT22;48397;53.016;-2.260;2022-09-24T07:23:26;7.60;99.90
44671;DHT22;48397;53.016;-2.260;2022-09-24T07:25:55;7.70;99.90
44671;DHT22;48397;53.016;-2.260;2022-09-24T07:28:23;7.80;99.90
44671;DHT22;48397;53.016;-2.260;2022-09-24T07:30:58;8.00;99.90
44671;DHT22;48397;53.016;-2.260;2022-09-24T07:38:23;8.70;99.90
44671;DHT22;48397;53.016;-2.260;2022-09-24T07:40:51;9.00;99.90
44671;DHT22;48397;53.016;-2.260;2022-09-24T07:43:20;9.30;99.90
44671;DHT22;48397;53.016;-2.260;2022-09-24T07:45:47;9.60;99.90
44671;DHT22;48397;53.016;-2.260;2022-09-24T07:50:43;9.90;99.90
44671;DHT22;48397;53.016;-2.260;2022-09-24T07:53:11;10.00;99.90
44671;DHT22;48397;53.016;-2.260;2022-09-24T07:58:09;10.30;99.90
44671;DHT22;48397;53.016;-2.260;2022-09-24T08:00:38;10.40;99.90
44671;DHT22;48397;53.016;-2.260;2022-09-24T08:03:05;10.40;99.90
44671;DHT22;48397;53.016;-2.260;2022-09-24T08:10:30;13.70;99.90
44671;DHT22;48397;53.016;-2.260;2022-09-24T08:13:00;10.70;99.90
44671;DHT22;48397;53.016;-2.260;2022-09-24T08:15:29;10.80;99.90
44671;DHT22;48397;53.016;-2.260;2022-09-24T08:18:03;10.80;99.90
44671;DHT22;48397;53.016;-2.260;2022-09-24T08:20:32;11.00;99.90
44671;DHT22;48397;53.016;-2.260;2022-09-24T08:23:04;11.10;99.90
44671;DHT22;48397;53.016;-2.260;2022-09-24T08:25:32;11.10;99.90
44671;DHT22;48397;53.016;-2.260;2022-09-24T08:28:01;11.10;99.90
44671;DHT22;48397;53.016;-2.260;2022-09-24T08:30:29;11.20;99.90
44671;DHT22;48397;53.016;-2.260;2022-09-24T08:37:53;11.30;99.90
44671;DHT22;48397;53.016;-2.260;2022-09-24T08:40:25;11.30;99.90
44671;DHT22;48397;53.016;-2.260;2022-09-24T08:45:53;11.60;99.90
44671;DHT22;48397;53.016;-2.260;2022-09-24T08:48:43;11.70;99.90
44671;DHT22;48397;53.016;-2.260;2022-09-24T08:51:14;11.80;99.90
44671;DHT22;48397;53.016;-2.260;2022-09-24T08:56:34;11.90;99.90
44671;DHT22;48397;53.016;-2.260;2022-09-24T08:59:21;12.00;99.90
44671;DHT22;48397;53.016;-2.260;2022-09-24T09:04:30;12.10;99.90
44671;DHT22;48397;53.016;-2.260;2022-09-24T09:12:14;12.20;99.90
44671;DHT22;48397;53.016;-2.260;2022-09-24T09:20:34;12.40;99.90
44671;DHT22;48397;53.016;-2.260;2022-09-24T09:23:11;12.40;99.90
44671;DHT22;48397;53.016;-2.260;2022-09-24T09:25:49;12.40;99.90
44671;DHT22;48397;53.016;-2.260;2022-09-24T09:28:19;12.50;99.90
44671;DHT22;48397;53.016;-2.260;2022-09-24T09:41:55;12.80;99.90
44671;DHT22;48397;53.016;-2.260;2022-09-24T09:44:28;12.80;99.90
44671;DHT22;48397;53.016;-2.260;2022-09-24T09:47:18;12.90;99.90
44671;DHT22;48397;53.016;-2.260;2022-09-24T09:49:50;12.90;99.90
44671;DHT22;48397;53.016;-2.260;2022-09-24T09:52:21;12.90;99.90
44671;DHT22;48397;53.016;-2.260;2022-09-24T09:54:50;13.00;99.90
44671;DHT22;48397;53.016;-2.260;2022-09-24T09:57:22;13.00;99.90
44671;DHT22;48397;53.016;-2.260;2022-09-24T09:59:52;13.10;99.90
44671;DHT22;48397;53.016;-2.260;2022-09-24T10:02:27;13.20;99.90
44671;DHT22;48397;53.016;-2.260;2022-09-24T10:04:58;13.30;99.90
44671;DHT22;48397;53.016;-2.260;2022-09-24T10:07:27;13.40;99.90
44671;DHT22;48397;53.016;-2.260;2022-09-24T10:10:19;13.50;99.90
44671;DHT22;48397;53.016;-2.260;2022-09-24T10:13:06;13.50;99.90
44671;DHT22;48397;53.016;-2.260;2022-09-24T10:15:50;13.70;99.90
44671;DHT22;48397;53.016;-2.260;2022-09-24T10:20:54;13.70;99.90
44671;DHT22;48397;53.016;-2.260;2022-09-24T10:23:36;13.80;99.90
44671;DHT22;48397;53.016;-2.260;2022-09-24T10:26:05;13.90;99.90
44671;DHT22;48397;53.016;-2.260;2022-09-24T10:28:35;15.60;99.90
44671;DHT22;48397;53.016;-2.260;2022-09-24T10:31:28;13.90;99.90
44671;DHT22;48397;53.016;-2.260;2022-09-24T10:33:59;14.00;99.90
44671;DHT22;48397;53.016;-2.260;2022-09-24T10:36:29;14.00;99.90
44671;DHT22;48397;53.016;-2.260;2022-09-24T10:39:14;14.00;99.90
44671;DHT22;48397;53.016;-2.260;2022-09-24T10:41:47;14.10;99.90
44671;DHT22;48397;53.016;-2.260;2022-09-24T10:44:15;14.30;99.90
44671;DHT22;48397;53.016;-2.260;2022-09-24T10:49:50;14.40;99.90
44671;DHT22;48397;53.016;-2.260;2022-09-24T11:11:49;14.50;99.90
44671;DHT22;48397;53.016;-2.260;2022-09-24T11:19:31;14.70;99.90
44671;DHT22;48397;53.016;-2.260;2022-09-24T11:22:22;14.80;99.90
44671;DHT22;48397;53.016;-2.260;2022-09-24T11:30:18;15.20;99.90
44671;DHT22;48397;53.016;-2.260;2022-09-24T11:41:46;15.40;99.90
44671;DHT22;48397;53.016;-2.260;2022-09-24T11:44:21;15.60;99.90
44671;DHT22;48397;53.016;-2.260;2022-09-24T11:49:55;15.80;99.90
44671;DHT22;48397;53.016;-2.260;2022-09-24T11:52:34;15.90;99.90
44671;DHT22;48397;53.016;-2.260;2022-09-24T11:55:19;16.20;99.90
44671;DHT22;48397;53.016;-2.260;2022-09-24T12:01:09;16.40;99.90
44671;DHT22;48397;53.016;-2.260;2022-09-24T12:04:26;16.50;99.90
44671;DHT22;48397;53.016;-2.260;2022-09-24T12:11:55;16.30;99.90
44671;DHT22;48397;53.016;-2.260;2022-09-24T12:14:29;16.10;99.90
44671;DHT22;48397;53.016;-2.260;2022-09-24T12:17:04;16.00;99.90
44671;DHT22;48397;53.016;-2.260;2022-09-24T12:22:13;15.80;99.90
44671;DHT22;48397;53.016;-2.260;2022-09-24T12:24:54;15.70;99.90
44671;DHT22;48397;53.016;-2.260;2022-09-24T12:27:43;15.80;99.90
44671;DHT22;48397;53.016;-2.260;2022-09-24T12:38:32;15.80;99.90
44671;DHT22;48397;53.016;-2.260;2022-09-24T12:41:22;15.80;99.90
44671;DHT22;48397;53.016;-2.260;2022-09-24T12:51:56;16.60;99.90
44671;DHT22;48397;53.016;-2.260;2022-09-24T12:54:33;17.00;99.90
44671;DHT22;48397;53.016;-2.260;2022-09-24T12:59:57;16.50;99.90
44671;DHT22;48397;53.016;-2.260;2022-09-24T13:02:28;17.10;99.90
44671;DHT22;48397;53.016;-2.260;2022-09-24T13:05:03;17.30;99.90
44671;DHT22;48397;53.016;-2.260;2022-09-24T13:12:44;17.70;99.90
44671;DHT22;48397;53.016;-2.260;2022-09-24T13:20:40;17.10;99.90
44671;DHT22;48397;53.016;-2.260;2022-09-24T13:25:59;16.80;99.90
44671;DHT22;48397;53.016;-2.260;2022-09-24T13:33:57;16.40;99.90
44671;DHT22;48397;53.016;-2.260;2022-09-24T13:36:35;16.50;99.90
44671;DHT22;48397;53.016;-2.260;2022-09-24T13:39:28;16.60;99.90
44671;DHT22;48397;53.016;-2.260;2022-09-24T13:42:32;16.60;99.90
44671;DHT22;48397;53.016;-2.260;2022-09-24T13:45:04;16.90;99.90
44671;DHT22;48397;53.016;-2.260;2022-09-24T13:50:50;18.40;99.90
44671;DHT22;48397;53.016;-2.260;2022-09-24T13:56:02;19.20;99.90
44671;DHT22;48397;53.016;-2.260;2022-09-24T13:58:36;19.80;99.90
44671;DHT22;48397;53.016;-2.260;2022-09-24T14:01:22;20.30;99.90
44671;DHT22;48397;53.016;-2.260;2022-09-24T14:03:59;20.40;99.90
44671;DHT22;48397;53.016;-2.260;2022-09-24T14:06:54;20.20;99.90
44671;DHT22;48397;53.016;-2.260;2022-09-24T14:09:34;19.90;99.90
44671;DHT22;48397;53.016;-2.260;2022-09-24T14:12:14;19.60;99.90
44671;DHT22;48397;53.016;-2.260;2022-09-24T14:14:45;19.30;99.90
44671;DHT22;48397;53.016;-2.260;2022-09-24T14:17:14;19.00;99.90
44671;DHT22;48397;53.016;-2.260;2022-09-24T14:19:42;18.70;99.90
44671;DHT22;48397;53.016;-2.260;2022-09-24T14:22:37;18.50;99.90
44671;DHT22;48397;53.016;-2.260;2022-09-24T14:25:08;18.20;99.90
44671;DHT22;48397;53.016;-2.260;2022-09-24T14:27:41;17.70;99.90
44671;DHT22;48397;53.016;-2.260;2022-09-24T14:32:57;16.90;99.90
44671;DHT22;48397;53.016;-2.260;2022-09-24T14:35:33;16.70;99.90
44671;DHT22;48397;53.016;-2.260;2022-09-24T14:38:06;14.80;99.90
44671;DHT22;48397;53.016;-2.260;2022-09-24T14:40:48;16.40;99.90
44671;DHT22;48397;53.016;-2.260;2022-09-24T14:43:20;16.20;99.90
44671;DHT22;48397;53.016;-2.260;2022-09-24T14:45:51;16.00;99.90
44671;DHT22;48397;53.016;-2.260;2022-09-24T14:48:30;16.00;99.90
44671;DHT22;48397;53.016;-2.260;2022-09-24T14:50:58;15.80;99.90
44671;DHT22;48397;53.016;-2.260;2022-09-24T14:53:34;15.80;99.90
44671;DHT22;48397;53.016;-2.260;2022-09-24T14:56:19;15.70;99.90
44671;DHT22;48397;53.016;-2.260;2022-09-24T15:01:18;15.80;99.90
44671;DHT22;48397;53.016;-2.260;2022-09-24T15:03:51;16.20;99.90
44671;DHT22;48397;53.016;-2.260;2022-09-24T15:06:27;15.80;99.90
44671;DHT22;48397;53.016;-2.260;2022-09-24T15:09:01;15.80;99.90
44671;DHT22;48397;53.016;-2.260;2022-09-24T15:11:34;15.80;99.90
44671;DHT22;48397;53.016;-2.260;2022-09-24T15:16:43;15.90;99.90
44671;DHT22;48397;53.016;-2.260;2022-09-24T15:19:16;15.90;99.90
44671;DHT22;48397;53.016;-2.260;2022-09-24T15:24:19;15.90;99.90
44671;DHT22;48397;53.016;-2.260;2022-09-24T15:27:02;15.90;99.90
44671;DHT22;48397;53.016;-2.260;2022-09-24T15:34:26;15.80;99.90
44671;DHT22;48397;53.016;-2.260;2022-09-24T15:36:56;15.80;99.90
44671;DHT22;48397;53.016;-2.260;2022-09-24T15:39:29;15.80;99.90
44671;DHT22;48397;53.016;-2.260;2022-09-24T15:41:58;15.80;99.90
44671;DHT22;48397;53.016;-2.260;2022-09-24T15:44:26;15.90;99.90
44671;DHT22;48397;53.016;-2.260;2022-09-24T15:47:00;15.90;99.90
44671;DHT22;48397;53.016;-2.260;2022-09-24T15:49:27;15.90;99.90
44671;DHT22;48397;53.016;-2.260;2022-09-24T15:52:06;15.90;99.90
44671;DHT22;48397;53.016;-2.260;2022-09-24T15:54:35;15.90;99.90
44671;DHT22;48397;53.016;-2.260;2022-09-24T15:57:03;15.90;99.90
44671;DHT22;48397;53.016;-2.260;2022-09-24T15:59:30;15.90;99.90
44671;DHT22;48397;53.016;-2.260;2022-09-24T16:02:01;15.80;99.90
44671;DHT22;48397;53.016;-2.260;2022-09-24T16:04:29;15.80;99.90
44671;DHT22;48397;53.016;-2.260;2022-09-24T16:06:57;15.80;99.90
44671;DHT22;48397;53.016;-2.260;2022-09-24T16:09:25;15.80;99.90
44671;DHT22;48397;53.016;-2.260;2022-09-24T16:14:22;15.70;99.90
44671;DHT22;48397;53.016;-2.260;2022-09-24T16:16:50;15.70;99.90
44671;DHT22;48397;53.016;-2.260;2022-09-24T16:19:17;15.70;99.90
44671;DHT22;48397;53.016;-2.260;2022-09-24T16:21:45;15.80;99.90
44671;DHT22;48397;53.016;-2.260;2022-09-24T16:24:13;15.80;99.90
44671;DHT22;48397;53.016;-2.260;2022-09-24T16:26:41;15.90;99.90
44671;DHT22;48397;53.016;-2.260;2022-09-24T16:29:09;15.90;99.90
44671;DHT22;48397;53.016;-2.260;2022-09-24T16:31:38;15.80;99.90
44671;DHT22;48397;53.016;-2.260;2022-09-24T16:34:06;15.80;99.90
44671;DHT22;48397;53.016;-2.260;2022-09-24T16:36:34;15.70;99.90
44671;DHT22;48397;53.016;-2.260;2022-09-24T16:39:01;15.70;99.90
44671;DHT22;48397;53.016;-2.260;2022-09-24T16:41:29;15.60;99.90
44671;DHT22;48397;53.016;-2.260;2022-09-24T16:44:01;15.60;99.90
44671;DHT22;48397;53.016;-2.260;2022-09-24T16:46:29;15.50;99.90
44671;DHT22;48397;53.016;-2.260;2022-09-24T16:48:57;15.40;99.90
44671;DHT22;48397;53.016;-2.260;2022-09-24T16:51:24;15.40;99.90
44671;DHT22;48397;53.016;-2.260;2022-09-24T16:53:53;15.20;99.90
44671;DHT22;48397;53.016;-2.260;2022-09-24T16:56:22;15.30;99.90
44671;DHT22;48397;53.016;-2.260;2022-09-24T16:58:50;15.30;99.90
44671;DHT22;48397;53.016;-2.260;2022-09-24T17:01:20;15.20;99.90
44671;DHT22;48397;53.016;-2.260;2022-09-24T17:03:52;15.10;99.90
44671;DHT22;48397;53.016;-2.260;2022-09-24T17:06:23;15.00;99.90
44671;DHT22;48397;53.016;-2.260;2022-09-24T17:08:51;14.90;99.90
44671;DHT22;48397;53.016;-2.260;2022-09-24T17:11:38;14.80;99.90
44671;DHT22;48397;53.016;-2.260;2022-09-24T17:14:09;14.70;99.90
44671;DHT22;48397;53.016;-2.260;2022-09-24T17:16:40;14.60;99.90
44671;DHT22;48397;53.016;-2.260;2022-09-24T17:19:09;14.50;99.90
44671;DHT22;48397;53.016;-2.260;2022-09-24T17:24:07;14.30;99.90
44671;DHT22;48397;53.016;-2.260;2022-09-24T17:26:36;14.20;99.90
44671;DHT22;48397;53.016;-2.260;2022-09-24T17:29:04;14.20;99.90
44671;DHT22;48397;53.016;-2.260;2022-09-24T17:34:05;14.10;99.90
44671;DHT22;48397;53.016;-2.260;2022-09-24T17:36:34;14.00;99.90
44671;DHT22;48397;53.016;-2.260;2022-09-24T17:39:03;13.90;99.90
44671;DHT22;48397;53.016;-2.260;2022-09-24T17:41:30;13.70;99.90
44671;DHT22;48397;53.016;-2.260;2022-09-24T17:43:59;13.60;99.90
44671;DHT22;48397;53.016;-2.260;2022-09-24T17:46:27;13.50;99.90
44671;DHT22;48397;53.016;-2.260;2022-09-24T17:48:58;13.30;99.90
44671;DHT22;48397;53.016;-2.260;2022-09-24T17:54:05;13.20;99.90
44671;DHT22;48397;53.016;-2.260;2022-09-24T17:56:34;13.10;99.90
44671;DHT22;48397;53.016;-2.260;2022-09-24T17:59:09;13.00;99.90
44671;DHT22;48397;53.016;-2.260;2022-09-24T18:01:40;12.90;99.90
44671;DHT22;48397;53.016;-2.260;2022-09-24T18:04:15;12.70;99.90
44671;DHT22;48397;53.016;-2.260;2022-09-24T18:06:44;12.60;99.90
44671;DHT22;48397;53.016;-2.260;2022-09-24T18:09:14;12.30;99.90
44671;DHT22;48397;53.016;-2.260;2022-09-24T18:11:48;12.30;99.90
44671;DHT22;48397;53.016;-2.260;2022-09-24T18:14:18;12.20;99.90
44671;DHT22;48397;53.016;-2.260;2022-09-24T18:16:46;12.10;99.90
44671;DHT22;48397;53.016;-2.260;2022-09-24T18:19:15;11.90;99.90
44671;DHT22;48397;53.016;-2.260;2022-09-24T18:21:44;11.70;99.90
44671;DHT22;48397;53.016;-2.260;2022-09-24T18:26:44;11.60;99.90
44671;DHT22;48397;53.016;-2.260;2022-09-24T18:29:18;11.50;99.90
44671;DHT22;48397;53.016;-2.260;2022-09-24T18:35:49;11.20;99.90
44671;DHT22;48397;53.016;-2.260;2022-09-24T18:38:17;11.10;99.90
44671;DHT22;48397;53.016;-2.260;2022-09-24T18:40:45;10.90;99.90
44671;DHT22;48397;53.016;-2.260;2022-09-24T18:43:13;10.80;99.90
44671;DHT22;48397;53.016;-2.260;2022-09-24T18:45:41;10.80;99.90
44671;DHT22;48397;53.016;-2.260;2022-09-24T18:48:09;10.70;99.90
44671;DHT22;48397;53.016;-2.260;2022-09-24T18:53:06;10.40;99.90
44671;DHT22;48397;53.016;-2.260;2022-09-24T18:55:38;10.20;99.90
44671;DHT22;48397;53.016;-2.260;2022-09-24T18:58:08;10.00;99.90
44671;DHT22;48397;53.016;-2.260;2022-09-24T19:00:40;9.90;99.90
44671;DHT22;48397;53.016;-2.260;2022-09-24T19:03:17;9.80;99.90
44671;DHT22;48397;53.016;-2.260;2022-09-24T19:08:19;9.70;99.90
44671;DHT22;48397;53.016;-2.260;2022-09-24T19:10:47;9.70;99.90
44671;DHT22;48397;53.016;-2.260;2022-09-24T19:30:44;9.60;99.90
44671;DHT22;48397;53.016;-2.260;2022-09-24T19:33:14;9.60;99.90
44671;DHT22;48397;53.016;-2.260;2022-09-24T19:35:58;9.50;99.90
44671;DHT22;48397;53.016;-2.260;2022-09-24T19:38:30;9.50;99.90
44671;DHT22;48397;53.016;-2.260;2022-09-24T19:41:00;9.40;99.90
44671;DHT22;48397;53.016;-2.260;2022-09-24T19:43:29;9.30;99.90
44671;DHT22;48397;53.016;-2.260;2022-09-24T19:48:40;9.00;99.90
44671;DHT22;48397;53.016;-2.260;2022-09-24T19:51:12;9.20;99.90
44671;DHT22;48397;53.016;-2.260;2022-09-24T19:58:39;9.00;99.90
44671;DHT22;48397;53.016;-2.260;2022-09-24T20:01:08;8.90;99.90
44671;DHT22;48397;53.016;-2.260;2022-09-24T20:06:11;8.80;99.90
44671;DHT22;48397;53.016;-2.260;2022-09-24T20:11:10;8.70;99.90
44671;DHT22;48397;53.016;-2.260;2022-09-24T20:16:09;8.50;99.90
44671;DHT22;48397;53.016;-2.260;2022-09-24T20:26:01;8.20;99.90
44671;DHT22;48397;53.016;-2.260;2022-09-24T20:36:16;7.90;99.90
44671;DHT22;48397;53.016;-2.260;2022-09-24T20:38:50;7.80;99.90
44671;DHT22;48397;53.016;-2.260;2022-09-24T20:41:19;7.60;99.90
44671;DHT22;48397;53.016;-2.260;2022-09-24T20:51:16;7.20;99.90
44671;DHT22;48397;53.016;-2.260;2022-09-24T20:53:46;7.10;99.90
44671;DHT22;48397;53.016;-2.260;2022-09-24T20:58:48;6.90;99.90
44671;DHT22;48397;53.016;-2.260;2022-09-24T21:01:18;6.90;99.90
44671;DHT22;48397;53.016;-2.260;2022-09-24T21:03:46;6.80;99.90
44671;DHT22;48397;53.016;-2.260;2022-09-24T21:06:18;6.80;99.90
44671;DHT22;48397;53.016;-2.260;2022-09-24T21:11:20;6.70;99.90
44671;DHT22;48397;53.016;-2.260;2022-09-24T21:13:51;6.70;99.90
44671;DHT22;48397;53.016;-2.260;2022-09-24T21:18:50;6.70;99.90
44671;DHT22;48397;53.016;-2.260;2022-09-24T21:21:21;6.70;99.90
44671;DHT22;48397;53.016;-2.260;2022-09-24T21:23:51;6.60;99.90
44671;DHT22;48397;53.016;-2.260;2022-09-24T21:31:25;6.50;99.90
44671;DHT22;48397;53.016;-2.260;2022-09-24T21:33:54;6.50;99.90
44671;DHT22;48397;53.016;-2.260;2022-09-24T21:36:28;6.50;99.90
44671;DHT22;48397;53.016;-2.260;2022-09-24T21:41:33;6.40;99.90
44671;DHT22;48397;53.016;-2.260;2022-09-24T21:44:04;6.40;99.90
44671;DHT22;48397;53.016;-2.260;2022-09-24T21:54:00;6.30;99.90
44671;DHT22;48397;53.016;-2.260;2022-09-24T21:56:30;6.40;99.90
44671;DHT22;48397;53.016;-2.260;2022-09-24T21:58:58;6.40;99.90
44671;DHT22;48397;53.016;-2.260;2022-09-24T22:01:30;6.40;99.90
44671;DHT22;48397;53.016;-2.260;2022-09-24T22:04:00;6.40;99.90
44671;DHT22;48397;53.016;-2.260;2022-09-24T22:09:05;6.40;99.90
44671;DHT22;48397;53.016;-2.260;2022-09-24T22:11:34;6.40;99.90
44671;DHT22;48397;53.016;-2.260;2022-09-24T22:14:03;6.40;99.90
44671;DHT22;48397;53.016;-2.260;2022-09-24T22:16:33;6.40;99.90
44671;DHT22;48397;53.016;-2.260;2022-09-24T22:19:03;6.30;99.90
44671;DHT22;48397;53.016;-2.260;2022-09-24T22:21:32;6.30;99.90
44671;DHT22;48397;53.016;-2.260;2022-09-24T22:33:55;6.20;99.90
44671;DHT22;48397;53.016;-2.260;2022-09-24T22:41:38;6.00;99.90